createdAt,value
2023-01-03T00:00:01.000Z,280.65
2023-01-03T00:01:28.000Z,280.65
2023-01-03T00:03:34.000Z,280.59
2023-01-03T00:06:25.000Z,280.59
2023-01-03T00:07:52.000Z,280.52
2023-01-03T00:09:58.000Z,280.59
2023-01-03T00:11:24.000Z,280.52
2023-01-03T00:13:30.000Z,280.52
2023-01-03T00:14:57.000Z,280.52
2023-01-03T00:17:03.000Z,280.52
2023-01-03T00:18:29.000Z,280.46
2023-01-03T00:20:36.000Z,280.46
2023-01-03T00:22:02.000Z,280.4
2023-01-03T00:24:08.000Z,280.4
2023-01-03T00:25:35.000Z,280.46
2023-01-03T00:27:41.000Z,280.34
2023-01-03T00:29:07.000Z,280.34
2023-01-03T00:31:14.000Z,280.27
2023-01-03T00:32:40.000Z,280.34
2023-01-03T00:34:46.000Z,280.21
2023-01-03T00:36:13.000Z,280.21
2023-01-03T00:38:19.000Z,280.21
2023-01-03T00:39:46.000Z,280.27
2023-01-03T00:41:52.000Z,280.27
2023-01-03T00:44:43.000Z,280.15
2023-01-03T00:46:09.000Z,280.15
2023-01-03T00:48:16.000Z,280.15
2023-01-03T00:49:42.000Z,280.15
2023-01-03T00:51:48.000Z,280.15
2023-01-03T00:53:15.000Z,280.15
2023-01-03T00:55:21.000Z,280.15
2023-01-03T00:56:47.000Z,280.15
2023-01-03T00:58:54.000Z,280.21
2023-01-03T01:00:20.000Z,280.21
2023-01-03T01:02:26.000Z,280.21
2023-01-03T01:03:53.000Z,280.21
2023-01-03T01:05:59.000Z,280.09
2023-01-03T01:07:26.000Z,280.09
2023-01-03T01:09:32.000Z,280.09
2023-01-03T01:10:58.000Z,280.02
2023-01-03T01:13:04.000Z,279.96
2023-01-03T01:14:31.000Z,279.96
2023-01-03T01:16:38.000Z,279.96
2023-01-03T01:18:04.000Z,279.96
2023-01-03T01:20:10.000Z,279.9
2023-01-03T01:23:01.000Z,279.84
2023-01-03T01:24:28.000Z,279.84
2023-01-03T01:26:34.000Z,279.77
2023-01-03T01:28:00.000Z,279.71
2023-01-03T01:30:06.000Z,279.71
2023-01-03T01:31:33.000Z,279.84
2023-01-03T01:33:39.000Z,279.84
2023-01-03T01:35:06.000Z,279.9
2023-01-03T01:37:12.000Z,280.02
2023-01-03T01:38:38.000Z,280.02
2023-01-03T01:40:44.000Z,279.96
2023-01-03T01:42:11.000Z,279.96
2023-01-03T01:44:23.000Z,279.9
2023-01-03T01:45:50.000Z,279.96
2023-01-03T01:47:56.000Z,280.02
2023-01-03T01:49:22.000Z,279.96
2023-01-03T01:51:29.000Z,280.02
2023-01-03T01:52:55.000Z,279.96
2023-01-03T01:55:01.000Z,279.96
2023-01-03T01:56:28.000Z,279.96
2023-01-03T01:58:34.000Z,279.96
2023-01-03T02:01:25.000Z,279.96
2023-01-03T02:02:52.000Z,279.9
2023-01-03T02:04:58.000Z,279.96
2023-01-03T02:06:24.000Z,280.02
2023-01-03T02:08:30.000Z,280.02
2023-01-03T02:09:57.000Z,280.02
2023-01-03T02:12:03.000Z,280.02
2023-01-03T02:13:30.000Z,280.09
2023-01-03T02:15:36.000Z,280.02
2023-01-03T02:17:02.000Z,280.02
2023-01-03T02:19:08.000Z,280.02
2023-01-03T02:20:35.000Z,280.02
2023-01-03T02:22:41.000Z,280.02
2023-01-03T02:24:08.000Z,280.02
2023-01-03T02:26:14.000Z,280.02
2023-01-03T02:27:40.000Z,279.96
2023-01-03T02:29:46.000Z,279.96
2023-01-03T02:31:13.000Z,279.96
2023-01-03T02:33:19.000Z,279.9
2023-01-03T02:34:46.000Z,279.9
2023-01-03T02:36:52.000Z,279.84
2023-01-03T02:39:43.000Z,279.77
2023-01-03T02:41:10.000Z,279.71
2023-01-03T02:43:16.000Z,279.65
2023-01-03T02:44:42.000Z,279.65
2023-01-03T02:46:48.000Z,279.59
2023-01-03T02:48:15.000Z,279.65
2023-01-03T02:50:21.000Z,279.59
2023-01-03T02:51:48.000Z,279.52
2023-01-03T02:53:54.000Z,279.46
2023-01-03T02:55:20.000Z,279.46
2023-01-03T02:57:26.000Z,279.27
2023-01-03T02:58:53.000Z,279.21
2023-01-03T03:00:59.000Z,279.21
2023-01-03T03:02:26.000Z,279.15
2023-01-03T03:04:32.000Z,279.02
2023-01-03T03:05:58.000Z,278.96
2023-01-03T03:08:05.000Z,278.96
2023-01-03T03:09:31.000Z,278.96
2023-01-03T03:11:37.000Z,279.02
2023-01-03T03:13:04.000Z,279.02
2023-01-03T03:15:10.000Z,279.02
2023-01-03T03:18:01.000Z,278.96
2023-01-03T03:19:27.000Z,278.96
2023-01-03T03:21:34.000Z,279.09
2023-01-03T03:23:00.000Z,279.02
2023-01-03T03:25:06.000Z,278.96
2023-01-03T03:26:33.000Z,278.96
2023-01-03T03:28:39.000Z,278.84
2023-01-03T03:30:05.000Z,278.77
2023-01-03T03:32:12.000Z,278.71
2023-01-03T03:33:38.000Z,278.65
2023-01-03T03:35:44.000Z,278.59
2023-01-03T03:37:11.000Z,278.52
2023-01-03T03:39:17.000Z,278.46
2023-01-03T03:40:43.000Z,278.46
2023-01-03T03:42:49.000Z,278.52
2023-01-03T03:44:16.000Z,278.59
2023-01-03T03:46:22.000Z,278.52
2023-01-03T03:47:49.000Z,278.52
2023-01-03T03:49:55.000Z,278.46
2023-01-03T03:51:22.000Z,278.4
2023-01-03T03:53:28.000Z,278.46
2023-01-03T03:56:19.000Z,278.34
2023-01-03T03:57:45.000Z,278.34
2023-01-03T03:59:51.000Z,278.4
2023-01-03T04:01:18.000Z,278.4
2023-01-03T04:03:24.000Z,278.34
2023-01-03T04:04:51.000Z,278.27
2023-01-03T04:06:57.000Z,278.34
2023-01-03T04:08:23.000Z,278.34
2023-01-03T04:10:30.000Z,278.34
2023-01-03T04:12:02.000Z,278.34
2023-01-03T04:14:08.000Z,278.34
2023-01-03T04:15:35.000Z,278.27
2023-01-03T04:17:41.000Z,278.34
2023-01-03T04:19:07.000Z,278.4
2023-01-03T04:21:13.000Z,278.34
2023-01-03T04:22:45.000Z,278.34
2023-01-03T04:24:51.000Z,278.34
2023-01-03T04:26:17.000Z,278.4
2023-01-03T04:28:24.000Z,278.4
2023-01-03T04:29:50.000Z,278.4
2023-01-03T04:31:56.000Z,278.4
2023-01-03T04:34:48.000Z,278.34
2023-01-03T04:36:14.000Z,278.34
2023-01-03T04:38:21.000Z,278.27
2023-01-03T04:39:47.000Z,278.27
2023-01-03T04:41:53.000Z,278.21
2023-01-03T04:43:20.000Z,278.21
2023-01-03T04:45:26.000Z,278.21
2023-01-03T04:46:52.000Z,278.21
2023-01-03T04:48:59.000Z,278.21
2023-01-03T04:50:25.000Z,278.21
2023-01-03T04:52:31.000Z,278.09
2023-01-03T04:53:58.000Z,278.09
2023-01-03T04:56:04.000Z,278.09
2023-01-03T04:57:30.000Z,277.96
2023-01-03T04:59:36.000Z,277.9
2023-01-03T05:01:03.000Z,277.84
2023-01-03T05:03:09.000Z,277.77
2023-01-03T05:04:36.000Z,277.65
2023-01-03T05:06:42.000Z,277.52
2023-01-03T05:08:09.000Z,277.52
2023-01-03T05:10:15.000Z,277.46
2023-01-03T05:13:06.000Z,277.4
2023-01-03T05:14:32.000Z,277.34
2023-01-03T05:16:39.000Z,277.21
2023-01-03T05:18:05.000Z,277.21
2023-01-03T05:20:11.000Z,277.15
2023-01-03T05:21:38.000Z,277.15
2023-01-03T05:23:44.000Z,277.09
2023-01-03T05:25:11.000Z,277.02
2023-01-03T05:27:17.000Z,277.09
2023-01-03T05:28:43.000Z,277.09
2023-01-03T05:30:49.000Z,277.09
2023-01-03T05:32:16.000Z,276.96
2023-01-03T05:34:22.000Z,276.84
2023-01-03T05:35:49.000Z,276.84
2023-01-03T05:37:55.000Z,276.9
2023-01-03T05:39:21.000Z,276.9
2023-01-03T05:41:28.000Z,276.9
2023-01-03T05:42:54.000Z,276.9
2023-01-03T05:45:00.000Z,277.02
2023-01-03T05:46:27.000Z,277.09
2023-01-03T05:48:33.000Z,277.09
2023-01-03T05:51:24.000Z,277.02
2023-01-03T05:52:51.000Z,277.02
2023-01-03T05:54:57.000Z,277.09
2023-01-03T05:56:23.000Z,277.09
2023-01-03T05:58:29.000Z,277.15
2023-01-03T05:59:56.000Z,277.21
2023-01-03T06:02:02.000Z,277.21
2023-01-03T06:03:29.000Z,277.21
2023-01-03T06:05:35.000Z,277.15
2023-01-03T06:07:01.000Z,277.09
2023-01-03T06:09:07.000Z,277.21
2023-01-03T06:10:34.000Z,277.21
2023-01-03T06:12:40.000Z,277.21
2023-01-03T06:14:07.000Z,277.21
2023-01-03T06:16:13.000Z,277.15
2023-01-03T06:17:45.000Z,277.15
2023-01-03T06:19:51.000Z,277.02
2023-01-03T06:21:18.000Z,277.02
2023-01-03T06:23:24.000Z,277.02
2023-01-03T06:24:51.000Z,276.96
2023-01-03T06:26:57.000Z,276.9
2023-01-03T06:29:48.000Z,276.71
2023-01-03T06:31:14.000Z,276.71
2023-01-03T06:33:20.000Z,276.65
2023-01-03T06:34:47.000Z,276.52
2023-01-03T06:36:53.000Z,276.46
2023-01-03T06:38:20.000Z,276.52
2023-01-03T06:40:26.000Z,276.59
2023-01-03T06:42:01.000Z,276.46
2023-01-03T06:44:07.000Z,276.46
2023-01-03T06:45:34.000Z,276.46
2023-01-03T06:47:40.000Z,276.4
2023-01-03T06:49:06.000Z,276.34
2023-01-03T06:51:12.000Z,276.27
2023-01-03T06:52:39.000Z,276.27
2023-01-03T06:54:45.000Z,276.34
2023-01-03T06:56:12.000Z,276.4
2023-01-03T06:58:18.000Z,276.46
2023-01-03T06:59:44.000Z,276.46
2023-01-03T07:01:50.000Z,276.46
2023-01-03T07:03:17.000Z,276.59
2023-01-03T07:05:23.000Z,276.59
2023-01-03T07:08:14.000Z,276.65
2023-01-03T07:09:41.000Z,276.77
2023-01-03T07:11:47.000Z,276.84
2023-01-03T07:13:14.000Z,276.77
2023-01-03T07:15:20.000Z,276.71
2023-01-03T07:16:46.000Z,276.71
2023-01-03T07:18:52.000Z,276.65
2023-01-03T07:20:20.000Z,276.59
2023-01-03T07:22:26.000Z,276.52
2023-01-03T07:23:52.000Z,276.46
2023-01-03T07:25:59.000Z,276.4
2023-01-03T07:27:25.000Z,276.34
2023-01-03T07:29:31.000Z,276.4
2023-01-03T07:30:58.000Z,276.27
2023-01-03T07:33:04.000Z,276.27
2023-01-03T07:34:30.000Z,276.27
2023-01-03T07:36:37.000Z,276.34
2023-01-03T07:38:03.000Z,276.4
2023-01-03T07:40:09.000Z,276.59
2023-01-03T07:41:36.000Z,276.52
2023-01-03T07:43:42.000Z,276.71
2023-01-03T07:46:33.000Z,276.84
2023-01-03T07:48:00.000Z,277.02
2023-01-03T07:50:06.000Z,277.02
2023-01-03T07:51:32.000Z,277.15
2023-01-03T07:53:38.000Z,277.21
2023-01-03T07:55:05.000Z,277.34
2023-01-03T07:57:11.000Z,277.4
2023-01-03T07:58:37.000Z,277.34
2023-01-03T08:00:43.000Z,277.34
2023-01-03T08:02:10.000Z,277.4
2023-01-03T08:04:16.000Z,277.52
2023-01-03T08:05:43.000Z,277.52
2023-01-03T08:07:49.000Z,277.52
2023-01-03T08:09:16.000Z,277.59
2023-01-03T08:11:22.000Z,277.52
2023-01-03T08:12:48.000Z,277.52
2023-01-03T08:14:54.000Z,277.52
2023-01-03T08:16:21.000Z,277.59
2023-01-03T08:18:27.000Z,277.59
2023-01-03T08:19:54.000Z,277.65
2023-01-03T08:22:00.000Z,277.65
2023-01-03T08:24:51.000Z,277.71
2023-01-03T08:26:18.000Z,277.71
2023-01-03T08:28:24.000Z,277.77
2023-01-03T08:29:50.000Z,277.77
2023-01-03T08:31:56.000Z,277.84
2023-01-03T08:33:23.000Z,277.84
2023-01-03T08:35:29.000Z,277.84
2023-01-03T08:36:56.000Z,277.77
2023-01-03T08:39:02.000Z,277.84
2023-01-03T08:40:28.000Z,277.9
2023-01-03T08:42:40.000Z,277.9
2023-01-03T08:44:07.000Z,277.9
2023-01-03T08:46:13.000Z,277.96
2023-01-03T08:47:40.000Z,277.96
2023-01-03T08:49:46.000Z,278.02
2023-01-03T08:51:12.000Z,278.02
2023-01-03T08:53:18.000Z,278.02
2023-01-03T08:54:45.000Z,278.09
2023-01-03T08:56:51.000Z,278.09
2023-01-03T08:58:17.000Z,278.09
2023-01-03T09:00:24.000Z,278.09
2023-01-03T09:03:15.000Z,278.02
2023-01-03T09:04:42.000Z,278.02
2023-01-03T09:06:48.000Z,278.02
2023-01-03T09:08:14.000Z,278.02
2023-01-03T09:10:20.000Z,278.02
2023-01-03T09:11:47.000Z,278.02
2023-01-03T09:13:53.000Z,278.02
2023-01-03T09:15:20.000Z,278.02
2023-01-03T09:17:26.000Z,278.02
2023-01-03T09:18:53.000Z,278.09
2023-01-03T09:20:59.000Z,278.09
2023-01-03T09:22:25.000Z,278.15
2023-01-03T09:24:31.000Z,278.02
2023-01-03T09:25:58.000Z,278.09
2023-01-03T09:28:04.000Z,278.02
2023-01-03T09:29:30.000Z,277.96
2023-01-03T09:31:36.000Z,278.02
2023-01-03T09:33:04.000Z,277.96
2023-01-03T09:35:10.000Z,277.96
2023-01-03T09:36:37.000Z,277.96
2023-01-03T09:38:43.000Z,277.9
2023-01-03T09:41:34.000Z,277.84
2023-01-03T09:43:01.000Z,277.9
2023-01-03T09:45:07.000Z,277.77
2023-01-03T09:46:33.000Z,277.71
2023-01-03T09:48:40.000Z,277.71
2023-01-03T09:50:06.000Z,277.65
2023-01-03T09:52:35.000Z,277.65
2023-01-03T09:54:02.000Z,277.59
2023-01-03T09:56:08.000Z,277.59
2023-01-03T09:57:35.000Z,277.59
2023-01-03T09:59:41.000Z,277.65
2023-01-03T10:01:07.000Z,277.71
2023-01-03T10:03:14.000Z,277.77
2023-01-03T10:04:40.000Z,277.84
2023-01-03T10:06:46.000Z,277.84
2023-01-03T10:08:13.000Z,277.84
2023-01-03T10:10:19.000Z,277.84
2023-01-03T10:11:46.000Z,277.84
2023-01-03T10:13:52.000Z,277.9
2023-01-03T10:15:18.000Z,277.9
2023-01-03T10:17:24.000Z,278.02
2023-01-03T10:20:15.000Z,278.09
2023-01-03T10:21:42.000Z,278.15
2023-01-03T10:23:48.000Z,278.21
2023-01-03T10:25:15.000Z,278.27
2023-01-03T10:27:21.000Z,278.27
2023-01-03T10:28:47.000Z,278.34
2023-01-03T10:30:53.000Z,278.4
2023-01-03T10:32:29.000Z,278.52
2023-01-03T10:34:35.000Z,278.59
2023-01-03T10:36:02.000Z,278.84
2023-01-03T10:38:08.000Z,278.9
2023-01-03T10:39:34.000Z,278.9
2023-01-03T10:41:41.000Z,279.02
2023-01-03T10:43:07.000Z,279.02
2023-01-03T10:45:13.000Z,279.09
2023-01-03T10:46:40.000Z,279.09
2023-01-03T10:50:43.000Z,279.4
2023-01-03T10:52:49.000Z,279.46
2023-01-03T10:54:15.000Z,279.46
2023-01-03T10:56:22.000Z,279.59
2023-01-03T10:59:13.000Z,279.65
2023-01-03T11:00:40.000Z,279.71
2023-01-03T11:02:46.000Z,279.84
2023-01-03T11:04:12.000Z,280.02
2023-01-03T11:06:19.000Z,280.21
2023-01-03T11:07:45.000Z,280.09
2023-01-03T11:09:51.000Z,280.09
2023-01-03T11:11:18.000Z,280.09
2023-01-03T11:13:24.000Z,280.15
2023-01-03T11:14:51.000Z,280.27
2023-01-03T11:16:57.000Z,280.46
2023-01-03T11:18:24.000Z,280.4
2023-01-03T11:20:30.000Z,280.27
2023-01-03T11:21:56.000Z,280.27
2023-01-03T11:24:02.000Z,280.52
2023-01-03T11:25:29.000Z,280.59
2023-01-03T11:27:35.000Z,280.34
2023-01-03T11:29:02.000Z,280.4
2023-01-03T11:31:08.000Z,280.46
2023-01-03T11:32:35.000Z,280.4
2023-01-03T11:34:41.000Z,280.46
2023-01-03T11:38:11.000Z,280.4
2023-01-03T11:39:37.000Z,280.4
2023-01-03T11:41:44.000Z,280.46
2023-01-03T11:43:10.000Z,280.46
2023-01-03T11:45:16.000Z,280.46
2023-01-03T11:46:43.000Z,280.46
2023-01-03T11:48:49.000Z,280.4
2023-01-03T11:50:15.000Z,280.4
2023-01-03T11:52:22.000Z,280.27
2023-01-03T11:53:48.000Z,280.27
2023-01-03T11:55:54.000Z,280.27
2023-01-03T11:57:21.000Z,280.21
2023-01-03T11:59:27.000Z,280.21
2023-01-03T12:00:53.000Z,280.09
2023-01-03T12:02:59.000Z,280.02
2023-01-03T12:04:26.000Z,280.02
2023-01-03T12:06:33.000Z,280.02
2023-01-03T12:07:59.000Z,280.09
2023-01-03T12:10:05.000Z,280.09
2023-01-03T12:11:32.000Z,280.15
2023-01-03T12:13:38.000Z,280.15
2023-01-03T12:16:29.000Z,280.09
2023-01-03T12:17:56.000Z,280.09
2023-01-03T12:20:02.000Z,280.09
2023-01-03T12:21:29.000Z,280.09
2023-01-03T12:23:35.000Z,280.02
2023-01-03T12:25:01.000Z,280.02
2023-01-03T12:27:10.000Z,280.02
2023-01-03T12:28:36.000Z,280.02
2023-01-03T12:30:42.000Z,279.96
2023-01-03T12:32:09.000Z,280.02
2023-01-03T12:34:15.000Z,280.02
2023-01-03T12:35:42.000Z,280.02
2023-01-03T12:37:48.000Z,280.09
2023-01-03T12:39:14.000Z,280.15
2023-01-03T12:41:20.000Z,280.21
2023-01-03T12:42:47.000Z,280.21
2023-01-03T12:44:53.000Z,280.21
2023-01-03T12:46:20.000Z,280.27
2023-01-03T12:48:26.000Z,280.27
2023-01-03T12:49:52.000Z,280.27
2023-01-03T12:51:59.000Z,280.27
2023-01-03T12:54:50.000Z,280.34
2023-01-03T12:56:16.000Z,280.34
2023-01-03T12:58:22.000Z,280.27
2023-01-03T12:59:49.000Z,280.27
2023-01-03T13:01:55.000Z,280.27
2023-01-03T13:03:21.000Z,280.34
2023-01-03T13:05:28.000Z,280.34
2023-01-03T13:06:54.000Z,280.34
2023-01-03T13:09:00.000Z,280.34
2023-01-03T13:10:27.000Z,280.34
2023-01-03T13:12:33.000Z,280.34
2023-01-03T13:14:00.000Z,280.34
2023-01-03T13:16:06.000Z,280.34
2023-01-03T13:17:32.000Z,280.34
2023-01-03T13:19:38.000Z,280.34
2023-01-03T13:21:05.000Z,280.34
2023-01-03T13:23:11.000Z,280.34
2023-01-03T13:24:38.000Z,280.27
2023-01-03T13:26:44.000Z,280.34
2023-01-03T13:28:16.000Z,280.34
2023-01-03T13:30:22.000Z,280.34
2023-01-03T13:33:13.000Z,280.21
2023-01-03T13:34:39.000Z,280.27
2023-01-03T13:36:45.000Z,280.21
2023-01-03T13:38:12.000Z,280.21
2023-01-03T13:40:24.000Z,280.21
2023-01-03T13:42:32.000Z,280.21
2023-01-03T13:44:38.000Z,280.21
2023-01-03T13:46:04.000Z,280.21
2023-01-03T13:48:10.000Z,280.21
2023-01-03T13:49:37.000Z,280.21
2023-01-03T13:51:43.000Z,280.15
2023-01-03T13:53:10.000Z,280.15
2023-01-03T13:55:16.000Z,280.15
2023-01-03T13:56:42.000Z,280.15
2023-01-03T13:58:48.000Z,280.15
2023-01-03T14:00:15.000Z,280.15
2023-01-03T14:02:21.000Z,280.15
2023-01-03T14:03:48.000Z,280.15
2023-01-03T14:05:54.000Z,280.15
2023-01-03T14:07:21.000Z,280.15
2023-01-03T14:09:27.000Z,280.15
2023-01-03T14:12:18.000Z,280.09
2023-01-03T14:13:45.000Z,280.15
2023-01-03T14:15:51.000Z,280.09
2023-01-03T14:17:17.000Z,280.09
2023-01-03T14:19:23.000Z,280.09
2023-01-03T14:20:50.000Z,280.02
2023-01-03T14:22:56.000Z,280.02
2023-01-03T14:24:22.000Z,279.96
2023-01-03T14:26:29.000Z,280.02
2023-01-03T14:27:55.000Z,279.96
2023-01-03T14:30:01.000Z,279.96
2023-01-03T14:31:28.000Z,279.96
2023-01-03T14:33:34.000Z,279.9
2023-01-03T14:35:01.000Z,279.9
2023-01-03T14:37:07.000Z,279.9
2023-01-03T14:38:33.000Z,279.9
2023-01-03T14:40:39.000Z,279.84
2023-01-03T14:42:06.000Z,279.77
2023-01-03T14:44:12.000Z,279.77
2023-01-03T14:45:39.000Z,279.71
2023-01-03T14:47:45.000Z,279.71
2023-01-03T14:50:36.000Z,279.65
2023-01-03T14:52:02.000Z,279.71
2023-01-03T14:54:08.000Z,279.71
2023-01-03T14:55:35.000Z,279.71
2023-01-03T14:57:41.000Z,279.71
2023-01-03T14:59:08.000Z,279.71
2023-01-03T15:01:14.000Z,279.71
2023-01-03T15:02:40.000Z,279.71
2023-01-03T15:04:47.000Z,279.71
2023-01-03T15:06:13.000Z,279.71
2023-01-03T15:08:19.000Z,279.71
2023-01-03T15:09:46.000Z,279.71
2023-01-03T15:11:52.000Z,279.71
2023-01-03T15:13:18.000Z,279.71
2023-01-03T15:15:25.000Z,279.71
2023-01-03T15:16:51.000Z,279.71
2023-01-03T15:18:57.000Z,279.71
2023-01-03T15:20:24.000Z,279.65
2023-01-03T15:22:30.000Z,279.65
2023-01-03T15:23:57.000Z,279.65
2023-01-03T15:26:03.000Z,279.65
2023-01-03T15:28:54.000Z,279.65
2023-01-03T15:30:20.000Z,279.65
2023-01-03T15:32:27.000Z,279.65
2023-01-03T15:33:53.000Z,279.65
2023-01-03T15:35:59.000Z,279.59
2023-01-03T15:37:26.000Z,279.65
2023-01-03T15:39:32.000Z,279.65
2023-01-03T15:40:58.000Z,279.65
2023-01-03T15:43:05.000Z,279.65
2023-01-03T15:44:31.000Z,279.59
2023-01-03T15:46:37.000Z,279.65
2023-01-03T15:48:04.000Z,279.59
2023-01-03T15:51:50.000Z,279.59
2023-01-03T15:52:24.000Z,279.59
2023-01-03T15:53:51.000Z,279.59
2023-01-03T15:55:57.000Z,279.59
2023-01-03T15:57:23.000Z,279.59
2023-01-03T15:59:29.000Z,279.59
2023-01-03T16:00:56.000Z,279.59
2023-01-03T16:03:02.000Z,279.59
2023-01-03T16:04:29.000Z,279.59
2023-01-03T16:06:35.000Z,279.59
2023-01-03T16:09:20.000Z,279.52
2023-01-03T16:10:47.000Z,279.59
2023-01-03T16:12:53.000Z,279.52
2023-01-03T16:14:20.000Z,279.59
2023-01-03T16:16:26.000Z,279.52
2023-01-03T16:17:52.000Z,279.59
2023-01-03T16:19:58.000Z,279.52
2023-01-03T16:21:25.000Z,279.52
2023-01-03T16:23:31.000Z,279.52
2023-01-03T16:24:58.000Z,279.52
2023-01-03T16:27:04.000Z,279.52
2023-01-03T16:28:30.000Z,279.46
2023-01-03T16:30:36.000Z,279.46
2023-01-03T16:32:03.000Z,279.46
2023-01-03T16:34:09.000Z,279.46
2023-01-03T16:35:36.000Z,279.46
2023-01-03T16:37:42.000Z,279.46
2023-01-03T16:39:08.000Z,279.46
2023-01-03T16:41:15.000Z,279.46
2023-01-03T16:42:41.000Z,279.46
2023-01-03T16:44:47.000Z,279.46
2023-01-03T16:47:38.000Z,279.46
2023-01-03T16:49:05.000Z,279.46
2023-01-03T16:51:11.000Z,279.46
2023-01-03T16:52:38.000Z,279.46
2023-01-03T16:54:44.000Z,279.4
2023-01-03T16:56:10.000Z,279.46
2023-01-03T16:58:16.000Z,279.46
2023-01-03T16:59:43.000Z,279.46
2023-01-03T17:01:49.000Z,279.46
2023-01-03T17:03:16.000Z,279.46
2023-01-03T17:05:22.000Z,279.46
2023-01-03T17:06:49.000Z,279.46
2023-01-03T17:08:55.000Z,279.46
2023-01-03T17:10:21.000Z,279.46
2023-01-03T17:12:28.000Z,279.46
2023-01-03T17:13:54.000Z,279.46
2023-01-03T17:16:00.000Z,279.46
2023-01-03T17:17:27.000Z,279.46
2023-01-03T17:19:33.000Z,279.46
2023-01-03T17:21:29.000Z,279.46
2023-01-03T17:23:36.000Z,279.46
2023-01-03T17:26:27.000Z,279.46
2023-01-03T17:27:53.000Z,279.52
2023-01-03T17:29:59.000Z,279.46
2023-01-03T17:31:26.000Z,279.46
2023-01-03T17:33:32.000Z,279.46
2023-01-03T17:34:59.000Z,279.46
2023-01-03T17:37:05.000Z,279.46
2023-01-03T17:38:31.000Z,279.46
2023-01-03T17:40:37.000Z,279.46
2023-01-03T17:42:04.000Z,279.46
2023-01-03T17:44:10.000Z,279.46
2023-01-03T17:45:36.000Z,279.46
2023-01-03T17:47:42.000Z,279.4
2023-01-03T17:49:09.000Z,279.4
2023-01-03T17:51:15.000Z,279.4
2023-01-03T17:52:42.000Z,279.46
2023-01-03T17:54:50.000Z,279.4
2023-01-03T17:56:17.000Z,279.4
2023-01-03T17:58:23.000Z,279.46
2023-01-03T17:59:50.000Z,279.46
2023-01-03T18:01:56.000Z,279.52
2023-01-03T18:04:47.000Z,279.46
2023-01-03T18:06:41.000Z,279.46
2023-01-03T18:08:47.000Z,279.52
2023-01-03T18:10:14.000Z,279.46
2023-01-03T18:12:20.000Z,279.4
2023-01-03T18:13:47.000Z,279.46
2023-01-03T18:15:53.000Z,279.4
2023-01-03T18:17:19.000Z,279.4
2023-01-03T18:19:26.000Z,279.4
2023-01-03T18:20:52.000Z,279.34
2023-01-03T18:22:58.000Z,279.27
2023-01-03T18:24:25.000Z,279.34
2023-01-03T18:26:31.000Z,279.34
2023-01-03T18:27:57.000Z,279.27
2023-01-03T18:30:04.000Z,279.21
2023-01-03T18:31:30.000Z,279.21
2023-01-03T18:33:36.000Z,279.21
2023-01-03T18:35:03.000Z,279.21
2023-01-03T18:37:09.000Z,279.15
2023-01-03T18:38:36.000Z,279.15
2023-01-03T18:40:42.000Z,279.15
2023-01-03T18:43:33.000Z,278.96
2023-01-03T18:44:59.000Z,278.96
2023-01-03T18:47:06.000Z,278.96
2023-01-03T18:48:32.000Z,279.02
2023-01-03T18:50:38.000Z,278.9
2023-01-03T18:52:05.000Z,278.96
2023-01-03T18:54:11.000Z,278.9
2023-01-03T18:55:37.000Z,278.84
2023-01-03T18:57:43.000Z,278.84
2023-01-03T18:59:10.000Z,278.77
2023-01-03T19:01:16.000Z,278.84
2023-01-03T19:02:43.000Z,278.77
2023-01-03T19:04:49.000Z,278.71
2023-01-03T19:06:16.000Z,278.71
2023-01-03T19:08:22.000Z,278.71
2023-01-03T19:09:49.000Z,278.71
2023-01-03T19:13:21.000Z,278.71
2023-01-03T19:15:28.000Z,278.65
2023-01-03T19:16:54.000Z,278.65
2023-01-03T19:19:01.000Z,278.65
2023-01-03T19:21:52.000Z,278.59
2023-01-03T19:23:18.000Z,278.52
2023-01-03T19:25:24.000Z,278.52
2023-01-03T19:26:51.000Z,278.46
2023-01-03T19:28:57.000Z,278.4
2023-01-03T19:30:23.000Z,278.4
2023-01-03T19:32:29.000Z,278.34
2023-01-03T19:33:56.000Z,278.27
2023-01-03T19:36:02.000Z,278.34
2023-01-03T19:37:28.000Z,278.27
2023-01-03T19:39:35.000Z,278.21
2023-01-03T19:41:02.000Z,278.27
2023-01-03T19:43:08.000Z,278.34
2023-01-03T19:44:34.000Z,278.34
2023-01-03T19:46:41.000Z,278.27
2023-01-03T19:48:07.000Z,278.27
2023-01-03T19:50:13.000Z,278.21
2023-01-03T19:51:40.000Z,278.27
2023-01-03T19:53:46.000Z,278.27
2023-01-03T19:55:12.000Z,278.27
2023-01-03T19:57:18.000Z,278.15
2023-01-03T20:00:10.000Z,278.09
2023-01-03T20:03:47.000Z,278.09
2023-01-03T20:05:14.000Z,278.02
2023-01-03T20:07:20.000Z,277.96
2023-01-03T20:08:47.000Z,278.02
2023-01-03T20:10:53.000Z,277.96
2023-01-03T20:12:20.000Z,277.96
2023-01-03T20:14:26.000Z,277.96
2023-01-03T20:15:52.000Z,277.9
2023-01-03T20:17:59.000Z,277.9
2023-01-03T20:19:25.000Z,277.9
2023-01-03T20:21:31.000Z,277.84
2023-01-03T20:22:58.000Z,277.84
2023-01-03T20:25:10.000Z,277.77
2023-01-03T20:26:37.000Z,277.71
2023-01-03T20:28:43.000Z,277.77
2023-01-03T20:30:10.000Z,277.77
2023-01-03T20:32:16.000Z,277.77
2023-01-03T20:33:42.000Z,277.77
2023-01-03T20:35:48.000Z,277.77
2023-01-03T20:39:08.000Z,277.77
2023-01-03T20:40:35.000Z,277.84
2023-01-03T20:42:41.000Z,277.71
2023-01-03T20:44:07.000Z,277.71
2023-01-03T20:46:14.000Z,277.71
2023-01-03T20:47:40.000Z,277.77
2023-01-03T20:49:46.000Z,277.84
2023-01-03T20:51:13.000Z,277.9
2023-01-03T20:53:19.000Z,277.84
2023-01-03T20:54:46.000Z,277.84
2023-01-03T20:56:52.000Z,277.77
2023-01-03T20:58:18.000Z,277.77
2023-01-03T21:00:24.000Z,277.77
2023-01-03T21:01:51.000Z,277.71
2023-01-03T21:03:57.000Z,277.77
2023-01-03T21:05:24.000Z,277.77
2023-01-03T21:07:30.000Z,277.71
2023-01-03T21:08:56.000Z,277.71
2023-01-03T21:11:02.000Z,277.71
2023-01-03T21:12:29.000Z,277.71
2023-01-03T21:14:41.000Z,277.71
2023-01-03T21:17:32.000Z,277.71
2023-01-03T21:18:59.000Z,277.65
2023-01-03T21:21:05.000Z,277.65
2023-01-03T21:22:31.000Z,277.59
2023-01-03T21:24:37.000Z,277.59
2023-01-03T21:26:10.000Z,277.59
2023-01-03T21:28:16.000Z,277.52
2023-01-03T21:29:42.000Z,277.59
2023-01-03T21:31:49.000Z,277.52
2023-01-03T21:33:15.000Z,277.52
2023-01-03T21:35:21.000Z,277.46
2023-01-03T21:36:48.000Z,277.46
2023-01-03T21:38:54.000Z,277.4
2023-01-03T21:40:20.000Z,277.4
2023-01-03T21:42:27.000Z,277.34
2023-01-03T21:43:53.000Z,277.34
2023-01-03T21:45:59.000Z,277.4
2023-01-03T21:47:26.000Z,277.4
2023-01-03T21:49:32.000Z,277.34
2023-01-03T21:50:58.000Z,277.4
2023-01-03T21:53:04.000Z,277.4
2023-01-03T21:55:56.000Z,277.4
2023-01-03T21:57:22.000Z,277.4
2023-01-03T21:59:29.000Z,277.4
2023-01-03T22:00:55.000Z,277.34
2023-01-03T22:03:01.000Z,277.34
2023-01-03T22:04:28.000Z,277.27
2023-01-03T22:06:34.000Z,277.27
2023-01-03T22:08:01.000Z,277.34
2023-01-03T22:10:07.000Z,277.27
2023-01-03T22:11:33.000Z,277.27
2023-01-03T22:13:40.000Z,277.21
2023-01-03T22:15:06.000Z,277.21
2023-01-03T22:17:12.000Z,277.15
2023-01-03T22:18:39.000Z,277.09
2023-01-03T22:20:45.000Z,277.02
2023-01-03T22:22:11.000Z,277.02
2023-01-03T22:24:18.000Z,276.96
2023-01-03T22:25:44.000Z,276.96
2023-01-03T22:27:50.000Z,276.9
2023-01-03T22:29:17.000Z,276.96
2023-01-03T22:31:23.000Z,276.9
2023-01-03T22:34:14.000Z,276.9
2023-01-03T22:35:40.000Z,276.9
2023-01-03T22:37:47.000Z,276.9
2023-01-03T22:39:13.000Z,276.9
2023-01-03T22:41:19.000Z,276.9
2023-01-03T22:42:46.000Z,276.9
2023-01-03T22:44:52.000Z,276.77
2023-01-03T22:46:18.000Z,276.77
2023-01-03T22:48:25.000Z,276.84
2023-01-03T22:49:51.000Z,276.77
2023-01-03T22:51:57.000Z,276.84
2023-01-03T22:53:24.000Z,276.96
2023-01-03T22:55:30.000Z,276.96
2023-01-03T22:56:57.000Z,276.96
2023-01-03T22:59:03.000Z,276.9
2023-01-03T23:00:29.000Z,276.9